createdAt,value
2017-12-26T00:01:00.071Z,0.31
2017-12-26T00:01:59.559Z,0.31
2017-12-26T00:03:00.970Z,0.37
2017-12-26T00:03:58.552Z,0.37
2017-12-26T00:04:59.140Z,0.31
2017-12-26T00:05:58.769Z,0.37
2017-12-26T00:06:58.831Z,0.31
2017-12-26T00:07:58.750Z,0.31
2017-12-26T00:08:58.473Z,0.31
2017-12-26T00:09:58.570Z,0.31
2017-12-26T00:10:58.872Z,0.31
2017-12-26T00:11:58.781Z,0.25
2017-12-26T00:12:58.680Z,0.31
2017-12-26T00:13:58.858Z,0.25
2017-12-26T00:14:58.838Z,0.25
2017-12-26T00:15:59.365Z,0.25
2017-12-26T00:16:58.809Z,0.31
2017-12-26T00:17:59.384Z,0.25
2017-12-26T00:18:58.687Z,0.31
2017-12-26T00:19:58.700Z,0.25
2017-12-26T00:20:58.672Z,0.31
2017-12-26T00:21:58.808Z,0.31
2017-12-26T00:22:58.756Z,0.31
2017-12-26T00:23:58.595Z,0.31
2017-12-26T00:24:58.515Z,0.31
2017-12-26T00:25:58.899Z,0.31
2017-12-26T00:26:58.707Z,0.31
2017-12-26T00:27:58.729Z,0.31
2017-12-26T00:28:58.680Z,0.25
2017-12-26T00:29:58.686Z,0.25
2017-12-26T00:30:58.651Z,0.19
2017-12-26T00:31:58.717Z,0.19
2017-12-26T00:32:58.584Z,0.13
2017-12-26T00:33:58.681Z,0.13
2017-12-26T00:34:58.416Z,0.19
2017-12-26T00:35:58.563Z,0.13
2017-12-26T00:36:58.851Z,0.13
2017-12-26T00:37:58.529Z,0.13
2017-12-26T00:38:58.710Z,0.13
2017-12-26T00:39:58.716Z,0.06
2017-12-26T00:40:58.619Z,0.13
2017-12-26T00:41:58.787Z,0.13
2017-12-26T00:42:58.694Z,0.13
2017-12-26T00:43:58.491Z,0.13
2017-12-26T00:44:58.632Z,0.13
2017-12-26T00:45:58.747Z,0.13
2017-12-26T00:46:58.612Z,0.13
2017-12-26T00:47:58.655Z,0.13
2017-12-26T00:48:58.626Z,0.19
2017-12-26T00:49:58.767Z,0.19
2017-12-26T00:50:58.669Z,0.19
2017-12-26T00:51:58.672Z,0.25
2017-12-26T00:52:58.593Z,0.25
2017-12-26T00:53:58.760Z,0.25
2017-12-26T00:54:58.606Z,0.25
2017-12-26T00:55:58.610Z,0.25
2017-12-26T00:56:58.815Z,0.25
2017-12-26T00:57:58.510Z,0.25
2017-12-26T00:58:58.871Z,0.25
2017-12-26T00:59:58.440Z,0.25
2017-12-26T01:00:58.573Z,0.25
2017-12-26T01:01:58.786Z,0.25
2017-12-26T01:02:58.633Z,0.25
2017-12-26T01:03:58.726Z,0.25
2017-12-26T01:04:58.509Z,0.31
2017-12-26T01:05:58.525Z,0.31
2017-12-26T01:06:58.529Z,0.31
2017-12-26T01:07:58.586Z,0.31
2017-12-26T01:08:58.578Z,0.31
2017-12-26T01:09:59.028Z,0.31
2017-12-26T01:10:58.778Z,0.37
2017-12-26T01:11:58.652Z,0.31
2017-12-26T01:12:58.659Z,0.37
2017-12-26T01:13:58.535Z,0.37
2017-12-26T01:14:58.837Z,0.44
2017-12-26T01:15:59.004Z,0.44
2017-12-26T01:16:58.775Z,0.37
2017-12-26T01:17:58.499Z,0.37
2017-12-26T01:18:58.623Z,0.44
2017-12-26T01:19:58.643Z,0.44
2017-12-26T01:20:58.558Z,0.37
2017-12-26T01:21:58.577Z,0.44
2017-12-26T01:22:58.783Z,0.37
2017-12-26T01:23:58.898Z,0.44
2017-12-26T01:24:58.569Z,0.44
2017-12-26T01:25:58.617Z,0.44
2017-12-26T01:26:58.665Z,0.44
2017-12-26T01:27:58.724Z,0.44
2017-12-26T01:28:58.666Z,0.37
2017-12-26T01:29:58.725Z,0.44
2017-12-26T01:30:58.734Z,0.37
2017-12-26T01:31:58.686Z,0.37
2017-12-26T01:32:58.535Z,0.37
2017-12-26T01:33:58.692Z,0.44
2017-12-26T01:34:58.878Z,0.44
2017-12-26T01:35:58.753Z,0.37
2017-12-26T01:36:58.633Z,0.44
2017-12-26T01:37:58.475Z,0.44
2017-12-26T01:38:58.733Z,0.37
2017-12-26T01:39:58.717Z,0.31
2017-12-26T01:40:58.774Z,0.37
2017-12-26T01:41:58.604Z,0.31
2017-12-26T01:42:58.569Z,0.31
2017-12-26T01:43:58.763Z,0.31
2017-12-26T01:44:58.753Z,0.31
2017-12-26T01:45:58.617Z,0.31
2017-12-26T01:46:58.577Z,0.31
2017-12-26T01:47:58.812Z,0.37
2017-12-26T01:48:58.555Z,0.31
2017-12-26T01:49:58.849Z,0.31
2017-12-26T01:50:58.660Z,0.37
2017-12-26T01:51:58.620Z,0.37
2017-12-26T01:52:59.126Z,0.37
2017-12-26T01:53:58.854Z,0.31
2017-12-26T01:54:58.683Z,0.31
2017-12-26T01:55:58.566Z,0.25
2017-12-26T01:56:58.586Z,0.37
2017-12-26T01:57:58.645Z,0.31
2017-12-26T01:58:58.585Z,0.37
2017-12-26T01:59:58.749Z,0.37
2017-12-26T02:00:58.731Z,0.37
2017-12-26T02:01:58.522Z,0.37
2017-12-26T02:02:58.696Z,0.37
2017-12-26T02:03:58.742Z,0.37
2017-12-26T02:04:58.988Z,0.44
2017-12-26T02:05:58.630Z,0.37
2017-12-26T02:06:58.595Z,0.37
2017-12-26T02:07:58.512Z,0.31
2017-12-26T02:08:58.585Z,0.25
2017-12-26T02:09:58.616Z,0.31
2017-12-26T02:10:58.883Z,0.31
2017-12-26T02:11:58.686Z,0.25
2017-12-26T02:12:58.680Z,0.19
2017-12-26T02:13:58.645Z,0.25
2017-12-26T02:14:58.701Z,0.25
2017-12-26T02:15:58.653Z,0.25
2017-12-26T02:16:58.751Z,0.25
2017-12-26T02:17:58.532Z,0.25
2017-12-26T02:18:58.403Z,0.25
2017-12-26T02:19:58.725Z,0.25
2017-12-26T02:20:58.798Z,0.25
2017-12-26T02:21:58.785Z,0.25
2017-12-26T02:22:59.000Z,0.25
2017-12-26T02:23:58.817Z,0.25
2017-12-26T02:24:58.640Z,0.25
2017-12-26T02:25:58.560Z,0.25
2017-12-26T02:26:58.696Z,0.25
2017-12-26T02:27:58.749Z,0.31
2017-12-26T02:28:58.908Z,0.25
2017-12-26T02:29:58.815Z,0.37
2017-12-26T02:30:58.947Z,0.31
2017-12-26T02:31:58.717Z,0.31
2017-12-26T02:32:58.544Z,0.25
2017-12-26T02:33:58.854Z,0.31
2017-12-26T02:34:58.881Z,0.31
2017-12-26T02:35:58.727Z,0.37
2017-12-26T02:36:58.655Z,0.31
2017-12-26T02:37:58.585Z,0.31
2017-12-26T02:38:58.560Z,0.25
2017-12-26T02:39:58.669Z,0.31
2017-12-26T02:40:58.903Z,0.31
2017-12-26T02:41:58.795Z,0.31
2017-12-26T02:42:58.658Z,0.31
2017-12-26T02:43:58.836Z,0.25
2017-12-26T02:44:58.715Z,0.25
2017-12-26T02:45:58.855Z,0.25
2017-12-26T02:46:58.991Z,0.31
2017-12-26T02:47:58.761Z,0.31
2017-12-26T02:48:58.776Z,0.31
2017-12-26T02:49:58.668Z,0.37
2017-12-26T02:50:58.971Z,0.37
2017-12-26T02:51:58.674Z,0.44
2017-12-26T02:52:58.732Z,0.44
2017-12-26T02:53:58.732Z,0.37
2017-12-26T02:54:58.641Z,0.5
2017-12-26T02:55:58.985Z,0.5
2017-12-26T02:56:58.738Z,0.5
2017-12-26T02:57:58.700Z,0.44
2017-12-26T02:58:58.644Z,0.44
2017-12-26T02:59:58.678Z,0.5
2017-12-26T03:00:58.758Z,0.44
2017-12-26T03:01:58.650Z,0.44
2017-12-26T03:02:59.121Z,0.37
2017-12-26T03:03:58.603Z,0.44
2017-12-26T03:04:58.723Z,0.37
2017-12-26T03:05:58.956Z,0.37
2017-12-26T03:06:58.622Z,0.31
2017-12-26T03:07:58.648Z,0.31
2017-12-26T03:08:58.596Z,0.31
2017-12-26T03:09:58.675Z,0.25
2017-12-26T03:10:58.849Z,0.31
2017-12-26T03:11:58.689Z,0.25
2017-12-26T03:12:58.775Z,0.25
2017-12-26T03:13:58.786Z,0.25
2017-12-26T03:14:58.670Z,0.25
2017-12-26T03:15:58.873Z,0.13
2017-12-26T03:16:58.665Z,0.19
2017-12-26T03:17:58.854Z,0.13
2017-12-26T03:18:58.656Z,0.19
2017-12-26T03:19:58.776Z,0.13
2017-12-26T03:20:58.963Z,0.13
2017-12-26T03:21:58.727Z,0.13
2017-12-26T03:22:58.643Z,0.13
2017-12-26T03:23:58.618Z,0.13
2017-12-26T03:24:58.848Z,0.06
2017-12-26T03:25:58.785Z,0.13
2017-12-26T03:28:58.924Z,0.19
2017-12-26T03:29:58.666Z,0.19
2017-12-26T03:30:58.708Z,0.19
2017-12-26T03:31:59.202Z,0.19
2017-12-26T03:32:59.078Z,0.25
2017-12-26T03:33:58.774Z,0.19
2017-12-26T03:34:58.825Z,0.19
2017-12-26T03:35:58.931Z,0.19
2017-12-26T03:36:58.842Z,0.25
2017-12-26T03:37:58.730Z,0.19
2017-12-26T03:38:58.777Z,0.19
2017-12-26T03:39:58.872Z,0.19
2017-12-26T03:40:58.602Z,0.25
2017-12-26T03:41:58.759Z,0.19
2017-12-26T03:42:58.623Z,0.25
2017-12-26T03:43:58.785Z,0.25
2017-12-26T03:44:58.889Z,0.31
2017-12-26T03:45:58.914Z,0.31
2017-12-26T03:46:59.098Z,0.31
2017-12-26T03:47:58.927Z,0.31
2017-12-26T03:48:58.798Z,0.37
2017-12-26T03:49:59.042Z,0.37
2017-12-26T03:50:58.980Z,0.37
2017-12-26T03:51:58.941Z,0.44
2017-12-26T03:52:59.005Z,0.44
2017-12-26T03:53:59.055Z,0.5
2017-12-26T03:54:58.844Z,0.44
2017-12-26T03:55:58.864Z,0.5
2017-12-26T03:56:58.613Z,0.5
2017-12-26T03:57:58.877Z,0.44
2017-12-26T03:58:59.017Z,0.5
2017-12-26T03:59:58.853Z,0.56
2017-12-26T04:00:58.814Z,0.56
2017-12-26T04:01:58.721Z,0.56
2017-12-26T04:02:58.884Z,0.62
2017-12-26T04:03:59.021Z,0.56
2017-12-26T04:04:58.912Z,0.62
2017-12-26T04:05:58.830Z,0.62
2017-12-26T04:06:58.811Z,0.62
2017-12-26T04:07:59.058Z,0.62
2017-12-26T04:08:58.875Z,0.62
2017-12-26T04:09:58.794Z,0.62
2017-12-26T04:10:59.043Z,0.62
2017-12-26T04:11:58.963Z,0.62
2017-12-26T04:12:58.855Z,0.56
2017-12-26T04:13:58.984Z,0.56
2017-12-26T04:14:58.992Z,0.62
2017-12-26T04:15:58.884Z,0.62
2017-12-26T04:16:58.890Z,0.62
2017-12-26T04:17:58.759Z,0.62
2017-12-26T04:18:58.941Z,0.56
2017-12-26T04:19:58.947Z,0.62
2017-12-26T04:20:58.817Z,0.62
2017-12-26T04:21:58.717Z,0.62
2017-12-26T04:22:58.815Z,0.62
2017-12-26T04:23:58.945Z,0.69
2017-12-26T04:24:58.815Z,0.69
2017-12-26T04:25:58.895Z,0.69
2017-12-26T04:26:59.017Z,0.75
2017-12-26T04:27:58.851Z,0.69
2017-12-26T04:28:58.913Z,0.75
2017-12-26T04:29:58.913Z,0.81
2017-12-26T04:30:58.982Z,0.81
2017-12-26T04:31:59.090Z,0.88
2017-12-26T04:32:58.915Z,0.75
2017-12-26T04:33:59.145Z,0.81
2017-12-26T04:34:58.686Z,0.75
2017-12-26T04:35:58.949Z,0.75
2017-12-26T04:36:58.829Z,0.69
2017-12-26T04:37:58.863Z,0.69
2017-12-26T04:38:59.021Z,0.62
2017-12-26T04:39:58.897Z,0.62
2017-12-26T04:40:58.828Z,0.69
2017-12-26T04:41:58.983Z,0.69
2017-12-26T04:42:58.885Z,0.75
2017-12-26T04:43:58.781Z,0.69
2017-12-26T04:44:58.906Z,0.75
2017-12-26T04:45:59.331Z,0.69
2017-12-26T04:46:59.027Z,0.75
2017-12-26T04:47:59.047Z,0.81
2017-12-26T04:48:58.871Z,0.81
2017-12-26T04:49:58.997Z,0.81
2017-12-26T04:50:58.909Z,0.81
2017-12-26T04:51:59.219Z,0.81
2017-12-26T04:52:59.037Z,0.81
2017-12-26T04:53:58.816Z,0.81
2017-12-26T04:54:58.991Z,0.88
2017-12-26T04:55:58.864Z,0.88
2017-12-26T04:56:59.107Z,0.88
2017-12-26T04:57:58.979Z,0.88
2017-12-26T04:58:59.004Z,0.94
2017-12-26T04:59:58.924Z,0.94
2017-12-26T05:00:58.775Z,1.06
2017-12-26T05:01:58.797Z,1.06
2017-12-26T05:02:58.837Z,1.12
2017-12-26T05:03:59.053Z,1.12
2017-12-26T05:04:59.110Z,1.12
2017-12-26T05:05:59.013Z,1.12
2017-12-26T05:06:58.980Z,1.19
2017-12-26T05:07:58.943Z,1.19
2017-12-26T05:08:58.819Z,1.25
2017-12-26T05:09:59.069Z,1.25
2017-12-26T05:10:59.057Z,1.31
2017-12-26T05:11:59.202Z,1.25
2017-12-26T05:12:59.107Z,1.31
2017-12-26T05:13:59.119Z,1.37
2017-12-26T05:14:58.793Z,1.37
2017-12-26T05:15:59.076Z,1.31
2017-12-26T05:16:58.992Z,1.31
2017-12-26T05:17:59.014Z,1.31
2017-12-26T05:18:58.916Z,1.37
2017-12-26T05:19:58.962Z,1.31
2017-12-26T05:20:58.874Z,1.37
2017-12-26T05:21:59.038Z,1.37
2017-12-26T05:22:59.047Z,1.37
2017-12-26T05:23:58.890Z,1.44
2017-12-26T05:24:58.955Z,1.44
2017-12-26T05:25:58.967Z,1.44
2017-12-26T05:26:58.829Z,1.44
2017-12-26T05:27:59.195Z,1.44
2017-12-26T05:28:58.880Z,1.44
2017-12-26T05:29:58.761Z,1.44
2017-12-26T05:30:58.866Z,1.44
2017-12-26T05:31:59.083Z,1.44
2017-12-26T05:32:58.929Z,1.5
2017-12-26T05:33:58.994Z,1.44
2017-12-26T05:34:59.005Z,1.44
2017-12-26T05:35:58.917Z,1.37
2017-12-26T05:36:58.941Z,1.44
2017-12-26T05:37:59.062Z,1.44
2017-12-26T05:38:58.827Z,1.5
2017-12-26T05:39:58.936Z,1.44
2017-12-26T05:40:59.039Z,1.44
2017-12-26T05:41:58.904Z,1.5
2017-12-26T05:42:58.862Z,1.5
2017-12-26T05:43:59.152Z,1.56
2017-12-26T05:44:58.981Z,1.56
2017-12-26T05:45:58.993Z,1.56
2017-12-26T05:46:58.965Z,1.62
2017-12-26T05:47:58.852Z,1.62
2017-12-26T05:48:59.031Z,1.62
2017-12-26T05:49:58.990Z,1.62
2017-12-26T05:50:59.127Z,1.69
2017-12-26T05:51:59.005Z,1.62
2017-12-26T05:52:58.991Z,1.69
2017-12-26T05:53:59.054Z,1.69
2017-12-26T05:54:59.066Z,1.62
2017-12-26T05:55:59.159Z,1.69
2017-12-26T05:56:59.006Z,1.69
2017-12-26T05:57:58.862Z,1.81
2017-12-26T05:58:58.927Z,1.81
2017-12-26T05:59:58.985Z,1.87
2017-12-26T06:00:58.962Z,1.87
2017-12-26T06:01:59.339Z,1.87
2017-12-26T06:02:58.881Z,1.81
2017-12-26T06:03:59.021Z,1.87
2017-12-26T06:04:58.887Z,1.81
2017-12-26T06:05:58.915Z,1.81
2017-12-26T06:06:58.831Z,1.87
2017-12-26T06:07:58.945Z,1.87
2017-12-26T06:08:58.963Z,1.87
2017-12-26T06:09:59.208Z,1.81
2017-12-26T06:10:59.060Z,1.87
2017-12-26T06:11:58.990Z,1.81
2017-12-26T06:12:59.167Z,1.81
2017-12-26T06:13:59.000Z,1.81
2017-12-26T06:14:59.089Z,1.81
2017-12-26T06:15:59.003Z,1.81
2017-12-26T06:16:59.024Z,1.81
2017-12-26T06:17:58.984Z,1.87
2017-12-26T06:18:59.033Z,1.81
2017-12-26T06:19:59.074Z,1.87
2017-12-26T06:20:58.788Z,1.87
2017-12-26T06:21:59.165Z,1.87
2017-12-26T06:22:59.176Z,1.81
2017-12-26T06:23:58.938Z,1.87
2017-12-26T06:24:58.952Z,1.87
2017-12-26T06:25:59.052Z,1.81
2017-12-26T06:26:59.089Z,1.87
2017-12-26T06:27:59.136Z,1.81
2017-12-26T06:28:58.755Z,1.87
2017-12-26T06:29:59.244Z,1.81
2017-12-26T06:30:59.084Z,1.81
2017-12-26T06:31:59.143Z,1.87
2017-12-26T06:32:58.864Z,1.87
2017-12-26T06:33:59.133Z,1.87
2017-12-26T06:34:58.975Z,1.87
2017-12-26T06:35:59.088Z,1.87
2017-12-26T06:36:59.048Z,1.87
2017-12-26T06:37:59.097Z,1.87
2017-12-26T06:38:59.057Z,1.87
2017-12-26T06:39:59.065Z,1.94
2017-12-26T06:40:58.961Z,1.94
2017-12-26T06:41:59.062Z,1.94
2017-12-26T06:42:58.979Z,1.87
2017-12-26T06:43:58.887Z,1.94
2017-12-26T06:44:58.942Z,1.94
2017-12-26T06:45:58.863Z,1.94
2017-12-26T06:46:58.746Z,2
2017-12-26T06:47:58.939Z,1.94
2017-12-26T06:48:59.203Z,1.94
2017-12-26T06:49:59.052Z,1.94
2017-12-26T06:50:59.064Z,1.94
2017-12-26T06:51:59.225Z,1.94
2017-12-26T06:52:59.072Z,1.94
2017-12-26T06:53:58.947Z,1.87
2017-12-26T06:54:59.110Z,1.87
2017-12-26T06:55:58.786Z,1.87
2017-12-26T06:56:59.057Z,1.87
2017-12-26T06:57:59.068Z,1.87
2017-12-26T06:58:58.900Z,1.87
2017-12-26T06:59:59.392Z,1.87
2017-12-26T07:00:59.017Z,1.87
2017-12-26T07:01:59.091Z,1.87
2017-12-26T07:02:58.919Z,1.94
2017-12-26T07:03:59.018Z,1.94
2017-12-26T07:04:59.061Z,2
2017-12-26T07:05:58.914Z,1.94
2017-12-26T07:06:58.864Z,2
2017-12-26T07:07:59.080Z,2
2017-12-26T07:08:59.111Z,2
2017-12-26T07:09:59.026Z,2.06
2017-12-26T07:10:58.939Z,2.06
2017-12-26T07:11:58.956Z,2.12
2017-12-26T07:12:58.846Z,2.12
2017-12-26T07:13:58.987Z,2.19
2017-12-26T07:14:59.067Z,2.19
2017-12-26T07:15:58.880Z,2.19
2017-12-26T07:16:58.979Z,2.19
2017-12-26T07:17:59.022Z,2.19
2017-12-26T07:18:58.912Z,2.19
2017-12-26T07:19:59.050Z,2.12
2017-12-26T07:20:59.209Z,2.12
2017-12-26T07:21:58.997Z,2.19
2017-12-26T07:22:59.351Z,2.12
2017-12-26T07:23:59.161Z,2.12
2017-12-26T07:24:59.150Z,2.12
2017-12-26T07:25:59.232Z,2.12
2017-12-26T07:26:58.845Z,2.12
2017-12-26T07:27:58.863Z,2.06
2017-12-26T07:28:59.264Z,2.06
2017-12-26T07:29:58.985Z,2.06
2017-12-26T07:30:59.058Z,2.06
2017-12-26T07:31:58.865Z,2.06
2017-12-26T07:32:58.924Z,2
2017-12-26T07:33:58.919Z,2
2017-12-26T07:34:59.070Z,1.94
2017-12-26T07:35:58.956Z,1.94
2017-12-26T07:36:59.030Z,1.94
2017-12-26T07:37:59.101Z,1.94
2017-12-26T07:38:58.927Z,2
2017-12-26T07:39:58.897Z,1.94
2017-12-26T07:40:58.935Z,2
2017-12-26T07:41:59.023Z,2
2017-12-26T07:42:59.008Z,2
2017-12-26T07:43:58.961Z,2.06
2017-12-26T07:44:58.854Z,2.06
2017-12-26T07:45:59.087Z,2
2017-12-26T07:46:59.036Z,2
2017-12-26T07:49:59.530Z,2.12
2017-12-26T07:50:59.242Z,2.12
2017-12-26T07:51:59.005Z,2.19
2017-12-26T07:52:59.504Z,2.31
2017-12-26T07:53:59.176Z,2.31
2017-12-26T07:54:59.275Z,2.31
2017-12-26T07:55:59.375Z,2.37
2017-12-26T07:56:59.431Z,2.31
2017-12-26T07:57:59.404Z,2.37
2017-12-26T07:58:59.035Z,2.44
2017-12-26T07:59:59.302Z,2.44
2017-12-26T08:00:59.084Z,2.5
2017-12-26T08:01:59.301Z,2.44
2017-12-26T08:02:59.290Z,2.5
2017-12-26T08:03:59.232Z,2.56
2017-12-26T08:04:59.190Z,2.56
2017-12-26T08:05:58.799Z,2.5
2017-12-26T08:06:59.119Z,2.56
2017-12-26T08:07:59.394Z,2.56
2017-12-26T08:08:59.332Z,2.56
2017-12-26T08:09:59.044Z,2.62
2017-12-26T08:10:59.377Z,2.56
2017-12-26T08:11:59.330Z,2.62
2017-12-26T08:12:59.365Z,2.69
2017-12-26T08:13:59.291Z,2.69
2017-12-26T08:14:59.204Z,2.62
2017-12-26T08:15:59.193Z,2.69
2017-12-26T08:16:59.463Z,2.69
2017-12-26T08:17:59.075Z,2.75
2017-12-26T08:18:59.204Z,2.75
2017-12-26T08:19:59.035Z,2.81
2017-12-26T08:20:59.377Z,2.81
2017-12-26T08:21:59.208Z,2.94
2017-12-26T08:22:59.227Z,2.94
2017-12-26T08:23:59.095Z,3.06
2017-12-26T08:24:59.200Z,3.12
2017-12-26T08:25:59.145Z,3.12
2017-12-26T08:26:59.201Z,3.19
2017-12-26T08:27:59.120Z,3.19
2017-12-26T08:28:59.310Z,3.25
2017-12-26T08:29:59.035Z,3.31
2017-12-26T08:30:59.268Z,3.37
2017-12-26T08:31:59.227Z,3.5
2017-12-26T08:32:59.208Z,3.5
2017-12-26T08:33:59.275Z,3.62
2017-12-26T08:34:59.504Z,3.62
2017-12-26T08:35:59.483Z,3.75
2017-12-26T08:36:59.078Z,3.75
2017-12-26T08:37:59.454Z,3.81
2017-12-26T08:38:59.265Z,3.75
2017-12-26T08:39:59.272Z,3.87
2017-12-26T08:40:59.293Z,3.87
2017-12-26T08:41:59.446Z,3.87
2017-12-26T08:42:59.222Z,3.87
2017-12-26T08:43:59.485Z,3.87
2017-12-26T08:44:58.971Z,3.87
2017-12-26T08:45:59.244Z,3.87
2017-12-26T08:46:59.185Z,3.87
2017-12-26T08:47:59.401Z,3.94
2017-12-26T08:48:59.236Z,3.94
2017-12-26T08:49:59.099Z,4.06
2017-12-26T08:50:59.201Z,4.06
2017-12-26T08:51:59.261Z,4.12
2017-12-26T08:52:59.325Z,4.12
2017-12-26T08:53:59.263Z,4.06
2017-12-26T08:54:59.246Z,4.19
2017-12-26T08:55:59.442Z,4.12
2017-12-26T08:56:59.114Z,4.12
2017-12-26T08:57:59.277Z,4.19
2017-12-26T08:58:59.232Z,4.25
2017-12-26T08:59:59.297Z,4.19
2017-12-26T09:00:59.217Z,4.25
2017-12-26T09:01:59.222Z,4.25
2017-12-26T09:02:58.858Z,4.19
2017-12-26T09:03:59.321Z,4.19
2017-12-26T09:04:59.284Z,4.25
2017-12-26T09:05:59.225Z,4.25
2017-12-26T09:06:59.216Z,4.31
2017-12-26T09:07:59.291Z,4.25
2017-12-26T09:08:59.364Z,4.25
2017-12-26T09:09:59.442Z,4.25
2017-12-26T09:10:59.233Z,4.31
2017-12-26T09:11:59.266Z,4.31
2017-12-26T09:12:59.275Z,4.31
2017-12-26T09:13:59.436Z,4.31
2017-12-26T09:14:59.182Z,4.37
2017-12-26T09:15:59.265Z,4.37
2017-12-26T09:16:59.278Z,4.37
2017-12-26T09:17:59.201Z,4.37
2017-12-26T09:18:59.335Z,4.37
2017-12-26T09:19:59.401Z,4.37
2017-12-26T09:20:59.439Z,4.44
2017-12-26T09:21:59.594Z,4.5
2017-12-26T09:22:59.257Z,4.5
2017-12-26T09:23:59.461Z,4.5
2017-12-26T09:24:59.568Z,4.44
2017-12-26T09:28:07.794Z,4.62
2017-12-26T09:28:59.293Z,4.56
2017-12-26T09:29:59.397Z,4.56
2017-12-26T09:30:59.100Z,4.62
2017-12-26T09:31:59.223Z,4.62
2017-12-26T09:32:59.305Z,4.69
2017-12-26T09:33:59.371Z,4.69
2017-12-26T09:34:59.277Z,4.69
2017-12-26T09:35:59.406Z,4.75
2017-12-26T09:36:59.330Z,4.75
2017-12-26T09:37:59.484Z,4.81
2017-12-26T09:38:59.191Z,4.81
2017-12-26T09:39:59.256Z,4.75
2017-12-26T09:40:59.205Z,4.81
2017-12-26T09:44:05.830Z,4.81
2017-12-26T09:44:59.466Z,4.81
2017-12-26T09:45:59.376Z,4.81
2017-12-26T09:46:59.164Z,4.81
2017-12-26T09:47:59.484Z,4.81
2017-12-26T09:48:59.516Z,4.81
2017-12-26T09:49:59.520Z,4.81
2017-12-26T09:50:59.915Z,4.87
2017-12-26T09:51:59.482Z,4.87
2017-12-26T09:52:59.406Z,4.87
2017-12-26T09:53:59.385Z,4.87
2017-12-26T09:54:59.262Z,4.87
2017-12-26T09:55:59.513Z,4.87
2017-12-26T09:56:59.442Z,4.94
2017-12-26T09:57:59.438Z,4.94
2017-12-26T09:58:59.366Z,4.94
2017-12-26T09:59:59.608Z,5
2017-12-26T10:00:59.286Z,5
2017-12-26T10:01:59.494Z,5
2017-12-26T10:02:59.482Z,4.94
2017-12-26T10:03:59.460Z,4.94
2017-12-26T10:04:59.602Z,5
2017-12-26T10:05:59.525Z,5
2017-12-26T10:06:59.194Z,4.94
2017-12-26T10:07:59.516Z,4.94
2017-12-26T10:08:59.343Z,4.94
2017-12-26T10:09:59.211Z,4.87
2017-12-26T10:10:59.367Z,4.94
2017-12-26T10:11:59.356Z,4.87
2017-12-26T10:12:59.611Z,4.87
2017-12-26T10:13:59.296Z,4.87
2017-12-26T10:14:59.486Z,4.81
2017-12-26T10:15:59.179Z,4.81
2017-12-26T10:16:59.405Z,4.87
2017-12-26T10:17:59.890Z,4.87
2017-12-26T10:18:59.182Z,4.87
2017-12-26T10:19:59.489Z,4.87
2017-12-26T10:20:59.139Z,4.94
2017-12-26T10:21:59.555Z,4.94
2017-12-26T10:22:59.440Z,4.87
2017-12-26T10:23:59.499Z,4.94
2017-12-26T10:24:59.357Z,4.94
2017-12-26T10:25:59.677Z,4.94
2017-12-26T10:26:59.584Z,4.94
2017-12-26T10:27:59.510Z,4.94
2017-12-26T10:28:59.463Z,4.94
2017-12-26T10:30:00.461Z,5
2017-12-26T10:31:00.083Z,5
2017-12-26T10:32:00.045Z,5.06
2017-12-26T10:32:59.713Z,5
2017-12-26T10:33:59.587Z,5
2017-12-26T10:34:59.439Z,5.06
2017-12-26T10:35:59.662Z,5.06
2017-12-26T10:36:59.506Z,5.06
2017-12-26T10:37:59.781Z,5.12
2017-12-26T10:38:59.466Z,5.12
2017-12-26T10:39:59.553Z,5.12
2017-12-26T10:41:00.174Z,5.19
2017-12-26T10:41:59.911Z,5.12
2017-12-26T10:42:59.838Z,5.19
2017-12-26T10:43:59.804Z,5.19
2017-12-26T10:44:59.601Z,5.19
2017-12-26T10:45:59.792Z,5.25
2017-12-26T10:46:59.971Z,5.31
2017-12-26T10:48:02.106Z,5.31
2017-12-26T10:48:59.723Z,5.5
2017-12-26T10:50:00.035Z,5.62
2017-12-26T10:50:59.909Z,5.75
2017-12-26T10:51:59.877Z,5.75
2017-12-26T10:52:59.906Z,5.87
2017-12-26T10:53:59.817Z,5.87
2017-12-26T10:54:59.965Z,5.87
2017-12-26T10:55:59.726Z,5.94
2017-12-26T10:56:59.682Z,5.94
2017-12-26T10:57:59.718Z,5.94
2017-12-26T10:58:59.849Z,6
2017-12-26T10:59:59.997Z,6
2017-12-26T11:01:00.630Z,6.06
2017-12-26T11:01:59.940Z,6
2017-12-26T11:02:59.651Z,6.06
2017-12-26T11:03:59.529Z,6.12
2017-12-26T11:04:59.692Z,6.12
2017-12-26T11:05:59.716Z,6.19
2017-12-26T11:06:59.564Z,6.25
2017-12-26T11:07:59.834Z,6.31
2017-12-26T11:08:59.728Z,6.37
2017-12-26T11:10:00.038Z,6.5
2017-12-26T11:10:59.887Z,6.5
2017-12-26T11:12:01.118Z,6.56
2017-12-26T11:12:59.674Z,6.69
2017-12-26T11:13:59.582Z,6.81
2017-12-26T11:14:59.914Z,6.94
2017-12-26T11:15:59.596Z,7
2017-12-26T11:16:59.837Z,6.94
2017-12-26T11:17:59.701Z,7
2017-12-26T11:18:59.762Z,7
2017-12-26T11:19:59.859Z,7.06
2017-12-26T11:20:59.658Z,7.06
2017-12-26T11:21:59.817Z,7.12
2017-12-26T11:22:59.759Z,7.12
2017-12-26T11:23:59.576Z,7.19
2017-12-26T11:24:59.811Z,7.12
2017-12-26T11:25:59.975Z,7.25
2017-12-26T11:27:01.018Z,7.31
2017-12-26T11:28:01.168Z,7.37
2017-12-26T11:28:59.389Z,7.31
2017-12-26T11:30:01.333Z,7.37
2017-12-26T11:31:00.069Z,7.31
2017-12-26T11:31:59.879Z,7.31
2017-12-26T11:32:59.726Z,7.44
2017-12-26T11:33:59.692Z,7.37
2017-12-26T11:34:59.551Z,7.37
2017-12-26T11:35:59.818Z,7.31
2017-12-26T11:36:59.432Z,7.31
2017-12-26T11:38:11.857Z,7.37
2017-12-26T11:38:59.399Z,7.37
2017-12-26T11:39:59.857Z,7.37
2017-12-26T11:40:59.827Z,7.37
2017-12-26T11:41:59.639Z,7.37
2017-12-26T11:42:59.662Z,7.37
2017-12-26T11:43:59.740Z,7.37
2017-12-26T11:44:59.847Z,7.37
2017-12-26T11:45:59.772Z,7.37
2017-12-26T11:46:59.719Z,7.37
2017-12-26T11:47:59.535Z,7.37
2017-12-26T11:48:59.529Z,7.37
2017-12-26T11:49:59.563Z,7.44
2017-12-26T11:50:59.743Z,7.44
2017-12-26T11:51:59.661Z,7.44
2017-12-26T11:52:59.496Z,7.5
2017-12-26T11:53:59.601Z,7.5
2017-12-26T11:54:59.682Z,7.5
2017-12-26T11:56:01.510Z,7.5
2017-12-26T11:57:00.657Z,7.5
2017-12-26T11:57:59.746Z,7.44
2017-12-26T11:59:01.107Z,7.44
2017-12-26T11:59:59.732Z,7.44
2017-12-26T12:01:00.471Z,7.44
2017-12-26T12:01:59.495Z,7.37
2017-12-26T12:03:00.247Z,7.44
2017-12-26T12:04:02.019Z,7.37
2017-12-26T12:04:59.798Z,7.44
2017-12-26T12:06:00.855Z,7.5
2017-12-26T12:06:59.608Z,7.5
2017-12-26T12:07:59.748Z,7.5
2017-12-26T12:09:00.786Z,7.44
2017-12-26T12:09:59.920Z,7.5
2017-12-26T12:11:00.039Z,7.5
2017-12-26T12:11:59.535Z,7.5
2017-12-26T12:13:09.076Z,7.5
2017-12-26T12:13:59.511Z,7.44
2017-12-26T12:14:59.610Z,7.5
2017-12-26T12:15:59.946Z,7.56
2017-12-26T12:16:59.378Z,7.5
2017-12-26T12:18:00.421Z,7.56
2017-12-26T12:19:00.020Z,7.5
2017-12-26T12:19:59.631Z,7.56
2017-12-26T12:21:00.483Z,7.5
2017-12-26T12:21:59.453Z,7.5
2017-12-26T12:22:59.499Z,7.5
2017-12-26T12:24:04.215Z,7.44
2017-12-26T12:24:59.355Z,7.44
2017-12-26T12:26:02.107Z,7.44
2017-12-26T12:27:05.483Z,7.44
2017-12-26T12:29:07.670Z,7.44
2017-12-26T12:31:01.659Z,7.44
2017-12-26T12:32:00.699Z,7.44
2017-12-26T12:33:10.966Z,7.44
2017-12-26T12:34:08.553Z,7.5
2017-12-26T12:35:09.245Z,7.44
2017-12-26T12:36:04.684Z,7.44
2017-12-26T12:37:17.707Z,7.44
2017-12-26T12:39:35.125Z,7.44
2017-12-26T12:40:12.190Z,7.44
2017-12-26T12:44:33.637Z,7.5
2017-12-26T12:47:59.552Z,7.44
2017-12-26T12:49:00.135Z,7.5
2017-12-26T12:49:59.550Z,7.5
2017-12-26T12:50:59.742Z,7.5
2017-12-26T12:52:00.361Z,7.5
2017-12-26T12:53:00.060Z,7.5
2017-12-26T12:54:00.439Z,7.56
2017-12-26T12:54:59.426Z,7.62
2017-12-26T12:55:59.634Z,7.62
2017-12-26T12:56:59.627Z,7.56
2017-12-26T12:57:59.455Z,7.62
2017-12-26T12:58:59.414Z,7.56
2017-12-26T12:59:59.875Z,7.56
2017-12-26T13:00:59.878Z,7.56
2017-12-26T13:01:59.491Z,7.62
2017-12-26T13:03:00.315Z,7.62
2017-12-26T13:03:59.611Z,7.62
2017-12-26T13:04:59.556Z,7.62
2017-12-26T13:05:59.521Z,7.62
2017-12-26T13:06:59.673Z,7.62
2017-12-26T13:07:59.656Z,7.62
2017-12-26T13:08:59.830Z,7.62
2017-12-26T13:09:59.696Z,7.62
2017-12-26T13:10:59.811Z,7.62
2017-12-26T13:12:00.135Z,7.69
2017-12-26T13:13:00.543Z,7.62
2017-12-26T13:13:59.558Z,7.56
2017-12-26T13:14:59.433Z,7.62
2017-12-26T13:15:59.750Z,7.62
2017-12-26T13:16:59.682Z,7.62
2017-12-26T13:17:59.580Z,7.62
2017-12-26T13:18:59.565Z,7.69
2017-12-26T13:20:00.086Z,7.62
2017-12-26T13:20:59.794Z,7.62
2017-12-26T13:21:59.710Z,7.62
2017-12-26T13:22:59.505Z,7.62
2017-12-26T13:24:00.046Z,7.62
2017-12-26T13:24:59.774Z,7.62
2017-12-26T13:26:00.396Z,7.62
2017-12-26T13:27:00.028Z,7.69
2017-12-26T13:28:00.108Z,7.69
2017-12-26T13:29:01.184Z,7.69
2017-12-26T13:30:01.611Z,7.69
2017-12-26T13:31:01.614Z,7.69
2017-12-26T13:32:03.044Z,7.69
2017-12-26T13:33:00.956Z,7.75
2017-12-26T13:34:00.954Z,7.69
2017-12-26T13:34:59.689Z,7.62
2017-12-26T13:35:59.660Z,7.62
2017-12-26T13:37:01.552Z,7.56
2017-12-26T13:38:07.583Z,7.56
2017-12-26T13:39:06.186Z,7.62
2017-12-26T13:40:04.621Z,7.56